sensor_id;sensor_type;location;lat;lon;timestamp;P1;durP1;ratioP1;P2;durP2;ratioP2
8480;SDS011;4277;51.354;6.740;2023-03-11T00:01:05;10.37;;;3.47;;
8480;SDS011;4277;51.354;6.740;2023-03-11T00:03:31;9.50;;;4.27;;
8480;SDS011;4277;51.354;6.740;2023-03-11T00:05:59;12.37;;;4.77;;
8480;SDS011;4277;51.354;6.740;2023-03-11T00:08:25;15.33;;;6.63;;
8480;SDS011;4277;51.354;6.740;2023-03-11T00:10:56;11.17;;;5.27;;
8480;SDS011;4277;51.354;6.740;2023-03-11T00:13:24;12.67;;;5.30;;
8480;SDS011;4277;51.354;6.740;2023-03-11T00:15:50;11.60;;;4.73;;
8480;SDS011;4277;51.354;6.740;2023-03-11T00:18:20;9.73;;;3.83;;
8480;SDS011;4277;51.354;6.740;2023-03-11T00:20:49;10.17;;;4.90;;
8480;SDS011;4277;51.354;6.740;2023-03-11T00:23:15;12.97;;;5.73;;
8480;SDS011;4277;51.354;6.740;2023-03-11T00:25:42;11.07;;;5.37;;
8480;SDS011;4277;51.354;6.740;2023-03-11T00:28:08;9.20;;;4.00;;
8480;SDS011;4277;51.354;6.740;2023-03-11T00:30:35;7.70;;;3.00;;
8480;SDS011;4277;51.354;6.740;2023-03-11T00:33:01;9.90;;;2.80;;
8480;SDS011;4277;51.354;6.740;2023-03-11T00:35:28;7.63;;;2.80;;
8480;SDS011;4277;51.354;6.740;2023-03-11T00:37:55;8.47;;;2.30;;
8480;SDS011;4277;51.354;6.740;2023-03-11T00:40:22;8.20;;;3.70;;
8480;SDS011;4277;51.354;6.740;2023-03-11T00:42:49;12.03;;;3.77;;
8480;SDS011;4277;51.354;6.740;2023-03-11T00:45:15;10.53;;;3.93;;
8480;SDS011;4277;51.354;6.740;2023-03-11T00:47:41;13.83;;;4.47;;
8480;SDS011;4277;51.354;6.740;2023-03-11T00:50:08;8.83;;;2.80;;
8480;SDS011;4277;51.354;6.740;2023-03-11T00:52:36;7.87;;;2.77;;
8480;SDS011;4277;51.354;6.740;2023-03-11T00:55:03;8.40;;;3.00;;
8480;SDS011;4277;51.354;6.740;2023-03-11T00:57:29;6.97;;;2.47;;
8480;SDS011;4277;51.354;6.740;2023-03-11T00:59:55;6.30;;;2.43;;
8480;SDS011;4277;51.354;6.740;2023-03-11T01:02:21;7.97;;;2.47;;
8480;SDS011;4277;51.354;6.740;2023-03-11T01:04:47;7.57;;;2.87;;
8480;SDS011;4277;51.354;6.740;2023-03-11T01:07:13;5.17;;;2.73;;
8480;SDS011;4277;51.354;6.740;2023-03-11T01:09:39;8.57;;;2.80;;
8480;SDS011;4277;51.354;6.740;2023-03-11T01:12:04;12.47;;;4.40;;
8480;SDS011;4277;51.354;6.740;2023-03-11T01:14:30;13.90;;;3.87;;
8480;SDS011;4277;51.354;6.740;2023-03-11T01:16:56;8.37;;;2.83;;
8480;SDS011;4277;51.354;6.740;2023-03-11T01:19:22;6.47;;;2.80;;
8480;SDS011;4277;51.354;6.740;2023-03-11T01:21:48;9.07;;;2.50;;
8480;SDS011;4277;51.354;6.740;2023-03-11T01:24:14;7.33;;;2.00;;
8480;SDS011;4277;51.354;6.740;2023-03-11T01:26:40;6.27;;;2.07;;
8480;SDS011;4277;51.354;6.740;2023-03-11T01:29:06;7.27;;;2.13;;
8480;SDS011;4277;51.354;6.740;2023-03-11T01:31:32;5.43;;;2.23;;
8480;SDS011;4277;51.354;6.740;2023-03-11T01:33:58;6.33;;;1.97;;
8480;SDS011;4277;51.354;6.740;2023-03-11T01:36:24;6.00;;;1.83;;
8480;SDS011;4277;51.354;6.740;2023-03-11T01:38:50;8.20;;;1.60;;
8480;SDS011;4277;51.354;6.740;2023-03-11T01:41:16;5.10;;;1.87;;
8480;SDS011;4277;51.354;6.740;2023-03-11T01:46:10;9.37;;;1.77;;
8480;SDS011;4277;51.354;6.740;2023-03-11T01:48:36;6.87;;;1.90;;
8480;SDS011;4277;51.354;6.740;2023-03-11T01:51:03;4.20;;;1.73;;
8480;SDS011;4277;51.354;6.740;2023-03-11T01:53:29;8.33;;;2.10;;
8480;SDS011;4277;51.354;6.740;2023-03-11T01:55:56;7.20;;;1.67;;
8480;SDS011;4277;51.354;6.740;2023-03-11T01:58:26;9.43;;;2.13;;
8480;SDS011;4277;51.354;6.740;2023-03-11T02:00:53;5.30;;;1.57;;
8480;SDS011;4277;51.354;6.740;2023-03-11T02:03:38;8.60;;;1.90;;
8480;SDS011;4277;51.354;6.740;2023-03-11T02:06:05;8.17;;;1.60;;
8480;SDS011;4277;51.354;6.740;2023-03-11T02:08:32;7.87;;;2.30;;
8480;SDS011;4277;51.354;6.740;2023-03-11T02:10:59;5.03;;;1.80;;
8480;SDS011;4277;51.354;6.740;2023-03-11T02:13:25;7.40;;;1.80;;
8480;SDS011;4277;51.354;6.740;2023-03-11T02:15:51;6.93;;;1.60;;
8480;SDS011;4277;51.354;6.740;2023-03-11T02:18:17;7.17;;;2.03;;
8480;SDS011;4277;51.354;6.740;2023-03-11T02:20:46;5.87;;;1.83;;
8480;SDS011;4277;51.354;6.740;2023-03-11T02:23:13;6.27;;;2.00;;
8480;SDS011;4277;51.354;6.740;2023-03-11T02:28:15;8.03;;;2.67;;
8480;SDS011;4277;51.354;6.740;2023-03-11T02:30:43;6.07;;;1.83;;
8480;SDS011;4277;51.354;6.740;2023-03-11T02:33:09;7.17;;;2.00;;
8480;SDS011;4277;51.354;6.740;2023-03-11T02:35:35;5.83;;;1.70;;
8480;SDS011;4277;51.354;6.740;2023-03-11T02:38:01;5.47;;;1.60;;
8480;SDS011;4277;51.354;6.740;2023-03-11T02:40:32;8.00;;;2.17;;
8480;SDS011;4277;51.354;6.740;2023-03-11T02:43:00;6.30;;;2.17;;
8480;SDS011;4277;51.354;6.740;2023-03-11T02:45:27;6.07;;;2.33;;
8480;SDS011;4277;51.354;6.740;2023-03-11T02:47:55;8.00;;;2.50;;
8480;SDS011;4277;51.354;6.740;2023-03-11T02:50:21;5.80;;;2.10;;
8480;SDS011;4277;51.354;6.740;2023-03-11T02:52:48;9.13;;;2.10;;
8480;SDS011;4277;51.354;6.740;2023-03-11T02:55:14;5.53;;;2.00;;
8480;SDS011;4277;51.354;6.740;2023-03-11T02:57:42;8.83;;;2.07;;
8480;SDS011;4277;51.354;6.740;2023-03-11T03:00:08;7.27;;;2.23;;
8480;SDS011;4277;51.354;6.740;2023-03-11T03:02:38;11.03;;;2.20;;
8480;SDS011;4277;51.354;6.740;2023-03-11T03:05:04;7.77;;;2.00;;
8480;SDS011;4277;51.354;6.740;2023-03-11T03:07:31;11.77;;;2.97;;
8480;SDS011;4277;51.354;6.740;2023-03-11T03:09:57;6.03;;;2.00;;
8480;SDS011;4277;51.354;6.740;2023-03-11T03:12:23;8.67;;;2.30;;
8480;SDS011;4277;51.354;6.740;2023-03-11T03:14:48;4.93;;;2.30;;
8480;SDS011;4277;51.354;6.740;2023-03-11T03:17:14;6.67;;;2.40;;
8480;SDS011;4277;51.354;6.740;2023-03-11T03:19:40;7.93;;;2.20;;
8480;SDS011;4277;51.354;6.740;2023-03-11T03:22:06;5.17;;;2.00;;
8480;SDS011;4277;51.354;6.740;2023-03-11T03:24:32;4.83;;;1.93;;
8480;SDS011;4277;51.354;6.740;2023-03-11T03:26:58;6.60;;;2.17;;
8480;SDS011;4277;51.354;6.740;2023-03-11T03:29:24;7.10;;;2.00;;
8480;SDS011;4277;51.354;6.740;2023-03-11T03:31:50;6.87;;;1.90;;
8480;SDS011;4277;51.354;6.740;2023-03-11T03:34:16;5.67;;;1.73;;
8480;SDS011;4277;51.354;6.740;2023-03-11T03:36:42;6.33;;;1.90;;
8480;SDS011;4277;51.354;6.740;2023-03-11T03:39:08;5.93;;;1.53;;
8480;SDS011;4277;51.354;6.740;2023-03-11T03:41:34;5.40;;;1.63;;
8480;SDS011;4277;51.354;6.740;2023-03-11T03:44:00;6.80;;;2.10;;
8480;SDS011;4277;51.354;6.740;2023-03-11T03:46:26;7.43;;;1.90;;
8480;SDS011;4277;51.354;6.740;2023-03-11T03:48:52;4.53;;;1.63;;
8480;SDS011;4277;51.354;6.740;2023-03-11T03:51:18;6.80;;;2.13;;
8480;SDS011;4277;51.354;6.740;2023-03-11T03:53:44;4.43;;;2.13;;
8480;SDS011;4277;51.354;6.740;2023-03-11T03:56:14;6.07;;;2.27;;
8480;SDS011;4277;51.354;6.740;2023-03-11T03:58:40;5.33;;;2.07;;
8480;SDS011;4277;51.354;6.740;2023-03-11T04:01:07;4.17;;;1.60;;
8480;SDS011;4277;51.354;6.740;2023-03-11T04:03:34;9.70;;;2.13;;
8480;SDS011;4277;51.354;6.740;2023-03-11T04:06:22;5.90;;;1.70;;
8480;SDS011;4277;51.354;6.740;2023-03-11T04:08:46;7.10;;;2.20;;
8480;SDS011;4277;51.354;6.740;2023-03-11T04:11:13;7.03;;;1.90;;
8480;SDS011;4277;51.354;6.740;2023-03-11T04:13:39;7.90;;;1.67;;
8480;SDS011;4277;51.354;6.740;2023-03-11T04:16:05;4.13;;;1.70;;
8480;SDS011;4277;51.354;6.740;2023-03-11T04:18:32;11.07;;;2.60;;
8480;SDS011;4277;51.354;6.740;2023-03-11T04:20:58;7.70;;;2.40;;
8480;SDS011;4277;51.354;6.740;2023-03-11T04:23:24;8.73;;;2.43;;
8480;SDS011;4277;51.354;6.740;2023-03-11T04:25:50;7.77;;;2.03;;
8480;SDS011;4277;51.354;6.740;2023-03-11T04:28:16;8.63;;;3.07;;
8480;SDS011;4277;51.354;6.740;2023-03-11T04:30:42;4.97;;;2.23;;
8480;SDS011;4277;51.354;6.740;2023-03-11T04:33:07;5.00;;;2.80;;
8480;SDS011;4277;51.354;6.740;2023-03-11T04:35:33;5.23;;;1.70;;
8480;SDS011;4277;51.354;6.740;2023-03-11T04:37:59;5.90;;;1.90;;
8480;SDS011;4277;51.354;6.740;2023-03-11T04:40:25;5.77;;;1.60;;
8480;SDS011;4277;51.354;6.740;2023-03-11T04:42:52;5.37;;;1.57;;
8480;SDS011;4277;51.354;6.740;2023-03-11T04:45:18;5.40;;;1.60;;
8480;SDS011;4277;51.354;6.740;2023-03-11T04:47:46;5.87;;;1.60;;
8480;SDS011;4277;51.354;6.740;2023-03-11T04:50:12;4.90;;;1.67;;
8480;SDS011;4277;51.354;6.740;2023-03-11T04:52:38;5.57;;;1.83;;
8480;SDS011;4277;51.354;6.740;2023-03-11T04:55:04;4.63;;;2.17;;
8480;SDS011;4277;51.354;6.740;2023-03-11T04:57:30;6.53;;;1.80;;
8480;SDS011;4277;51.354;6.740;2023-03-11T04:59:55;5.80;;;1.77;;
8480;SDS011;4277;51.354;6.740;2023-03-11T05:02:21;3.17;;;1.90;;
8480;SDS011;4277;51.354;6.740;2023-03-11T05:04:46;7.17;;;2.20;;
8480;SDS011;4277;51.354;6.740;2023-03-11T05:07:12;7.50;;;2.20;;
8480;SDS011;4277;51.354;6.740;2023-03-11T05:09:37;4.63;;;1.80;;
8480;SDS011;4277;51.354;6.740;2023-03-11T05:12:03;7.83;;;1.53;;
8480;SDS011;4277;51.354;6.740;2023-03-11T05:14:29;5.43;;;2.20;;
8480;SDS011;4277;51.354;6.740;2023-03-11T05:16:55;7.67;;;2.20;;
8480;SDS011;4277;51.354;6.740;2023-03-11T05:19:21;8.30;;;1.67;;
8480;SDS011;4277;51.354;6.740;2023-03-11T05:21:58;6.20;;;1.87;;
8480;SDS011;4277;51.354;6.740;2023-03-11T05:24:25;3.70;;;1.67;;
8480;SDS011;4277;51.354;6.740;2023-03-11T05:26:51;8.13;;;1.53;;
8480;SDS011;4277;51.354;6.740;2023-03-11T05:29:17;9.63;;;1.80;;
8480;SDS011;4277;51.354;6.740;2023-03-11T05:31:43;6.00;;;1.50;;
8480;SDS011;4277;51.354;6.740;2023-03-11T05:34:09;3.63;;;1.80;;
8480;SDS011;4277;51.354;6.740;2023-03-11T05:36:34;7.00;;;1.80;;
8480;SDS011;4277;51.354;6.740;2023-03-11T05:39:00;4.40;;;1.60;;
8480;SDS011;4277;51.354;6.740;2023-03-11T05:41:25;2.73;;;1.53;;
8480;SDS011;4277;51.354;6.740;2023-03-11T05:43:51;4.70;;;1.60;;
8480;SDS011;4277;51.354;6.740;2023-03-11T05:46:16;5.63;;;1.87;;
8480;SDS011;4277;51.354;6.740;2023-03-11T05:48:44;7.03;;;2.40;;
8480;SDS011;4277;51.354;6.740;2023-03-11T05:51:10;3.03;;;1.70;;
8480;SDS011;4277;51.354;6.740;2023-03-11T05:53:36;9.00;;;1.87;;
8480;SDS011;4277;51.354;6.740;2023-03-11T05:56:02;5.43;;;1.43;;
8480;SDS011;4277;51.354;6.740;2023-03-11T05:58:29;5.70;;;1.83;;
8480;SDS011;4277;51.354;6.740;2023-03-11T06:00:55;9.80;;;2.17;;
8480;SDS011;4277;51.354;6.740;2023-03-11T06:03:23;4.67;;;1.47;;
8480;SDS011;4277;51.354;6.740;2023-03-11T06:05:48;2.43;;;1.30;;
8480;SDS011;4277;51.354;6.740;2023-03-11T06:08:15;3.97;;;1.30;;
8480;SDS011;4277;51.354;6.740;2023-03-11T06:10:41;7.17;;;1.90;;
8480;SDS011;4277;51.354;6.740;2023-03-11T06:13:07;6.20;;;1.80;;
8480;SDS011;4277;51.354;6.740;2023-03-11T06:15:33;4.77;;;2.07;;
8480;SDS011;4277;51.354;6.740;2023-03-11T06:17:59;6.23;;;2.13;;
8480;SDS011;4277;51.354;6.740;2023-03-11T06:20:25;3.53;;;1.60;;
8480;SDS011;4277;51.354;6.740;2023-03-11T06:22:51;4.37;;;1.63;;
8480;SDS011;4277;51.354;6.740;2023-03-11T06:25:17;6.20;;;2.00;;
8480;SDS011;4277;51.354;6.740;2023-03-11T06:27:43;5.30;;;1.87;;
8480;SDS011;4277;51.354;6.740;2023-03-11T06:30:12;5.03;;;2.30;;
8480;SDS011;4277;51.354;6.740;2023-03-11T06:32:38;4.90;;;1.70;;
8480;SDS011;4277;51.354;6.740;2023-03-11T06:35:03;5.80;;;2.00;;
8480;SDS011;4277;51.354;6.740;2023-03-11T06:37:29;7.07;;;1.83;;
8480;SDS011;4277;51.354;6.740;2023-03-11T06:39:55;3.90;;;1.97;;
8480;SDS011;4277;51.354;6.740;2023-03-11T06:42:21;7.03;;;1.97;;
8480;SDS011;4277;51.354;6.740;2023-03-11T06:44:50;5.37;;;2.10;;
8480;SDS011;4277;51.354;6.740;2023-03-11T06:47:16;4.13;;;1.90;;
8480;SDS011;4277;51.354;6.740;2023-03-11T06:49:42;5.07;;;2.40;;
8480;SDS011;4277;51.354;6.740;2023-03-11T06:52:08;7.57;;;2.37;;
8480;SDS011;4277;51.354;6.740;2023-03-11T06:54:34;3.97;;;1.80;;
8480;SDS011;4277;51.354;6.740;2023-03-11T06:57:00;10.07;;;2.20;;
8480;SDS011;4277;51.354;6.740;2023-03-11T06:59:26;4.43;;;1.83;;
8480;SDS011;4277;51.354;6.740;2023-03-11T07:01:52;4.70;;;1.70;;
8480;SDS011;4277;51.354;6.740;2023-03-11T07:04:18;5.60;;;1.73;;
8480;SDS011;4277;51.354;6.740;2023-03-11T07:06:43;5.50;;;1.87;;
8480;SDS011;4277;51.354;6.740;2023-03-11T07:09:09;7.63;;;2.10;;
8480;SDS011;4277;51.354;6.740;2023-03-11T07:11:35;6.97;;;1.97;;
8480;SDS011;4277;51.354;6.740;2023-03-11T07:14:00;8.20;;;2.13;;
8480;SDS011;4277;51.354;6.740;2023-03-11T07:16:27;3.93;;;2.03;;
8480;SDS011;4277;51.354;6.740;2023-03-11T07:18:55;5.77;;;1.90;;
8480;SDS011;4277;51.354;6.740;2023-03-11T07:21:25;5.17;;;1.90;;
8480;SDS011;4277;51.354;6.740;2023-03-11T07:23:55;4.87;;;1.80;;
8480;SDS011;4277;51.354;6.740;2023-03-11T07:26:22;10.60;;;2.73;;
8480;SDS011;4277;51.354;6.740;2023-03-11T07:28:48;6.83;;;2.17;;
8480;SDS011;4277;51.354;6.740;2023-03-11T07:31:18;8.17;;;2.50;;
8480;SDS011;4277;51.354;6.740;2023-03-11T07:33:47;6.20;;;1.93;;
8480;SDS011;4277;51.354;6.740;2023-03-11T07:36:14;3.50;;;1.90;;
8480;SDS011;4277;51.354;6.740;2023-03-11T07:38:42;5.87;;;2.27;;
8480;SDS011;4277;51.354;6.740;2023-03-11T07:41:08;8.30;;;2.50;;
8480;SDS011;4277;51.354;6.740;2023-03-11T07:43:35;8.97;;;2.53;;
8480;SDS011;4277;51.354;6.740;2023-03-11T07:46:06;2.80;;;2.00;;
8480;SDS011;4277;51.354;6.740;2023-03-11T07:48:41;4.53;;;2.27;;
8480;SDS011;4277;51.354;6.740;2023-03-11T07:51:09;4.17;;;2.40;;
8480;SDS011;4277;51.354;6.740;2023-03-11T07:53:39;5.93;;;2.30;;
8480;SDS011;4277;51.354;6.740;2023-03-11T07:56:05;5.70;;;2.13;;
8480;SDS011;4277;51.354;6.740;2023-03-11T07:58:31;3.37;;;1.90;;
8480;SDS011;4277;51.354;6.740;2023-03-11T08:01:02;8.33;;;2.00;;
8480;SDS011;4277;51.354;6.740;2023-03-11T08:03:48;4.93;;;2.30;;
8480;SDS011;4277;51.354;6.740;2023-03-11T08:06:19;4.13;;;2.13;;
8480;SDS011;4277;51.354;6.740;2023-03-11T08:08:46;6.33;;;2.20;;
8480;SDS011;4277;51.354;6.740;2023-03-11T08:11:13;6.73;;;2.60;;
8480;SDS011;4277;51.354;6.740;2023-03-11T08:13:39;6.37;;;2.40;;
8480;SDS011;4277;51.354;6.740;2023-03-11T08:16:06;7.77;;;2.30;;
8480;SDS011;4277;51.354;6.740;2023-03-11T08:18:33;7.93;;;2.13;;
8480;SDS011;4277;51.354;6.740;2023-03-11T08:21:02;3.27;;;1.80;;
8480;SDS011;4277;51.354;6.740;2023-03-11T08:23:48;4.23;;;1.60;;
8480;SDS011;4277;51.354;6.740;2023-03-11T08:26:15;2.97;;;1.40;;
8480;SDS011;4277;51.354;6.740;2023-03-11T08:28:43;4.30;;;1.47;;
8480;SDS011;4277;51.354;6.740;2023-03-11T08:31:13;3.70;;;1.70;;
8480;SDS011;4277;51.354;6.740;2023-03-11T08:33:44;6.47;;;1.77;;
8480;SDS011;4277;51.354;6.740;2023-03-11T08:36:13;4.90;;;1.63;;
8480;SDS011;4277;51.354;6.740;2023-03-11T08:38:39;3.43;;;1.50;;
8480;SDS011;4277;51.354;6.740;2023-03-11T08:41:04;5.80;;;1.53;;
8480;SDS011;4277;51.354;6.740;2023-03-11T08:43:30;4.33;;;1.60;;
8480;SDS011;4277;51.354;6.740;2023-03-11T08:45:56;6.23;;;1.77;;
8480;SDS011;4277;51.354;6.740;2023-03-11T08:48:24;7.17;;;1.50;;
8480;SDS011;4277;51.354;6.740;2023-03-11T08:50:50;7.50;;;1.53;;
8480;SDS011;4277;51.354;6.740;2023-03-11T08:53:16;2.23;;;1.17;;
8480;SDS011;4277;51.354;6.740;2023-03-11T08:55:41;6.67;;;1.07;;
8480;SDS011;4277;51.354;6.740;2023-03-11T08:58:07;4.13;;;0.80;;
8480;SDS011;4277;51.354;6.740;2023-03-11T09:00:32;3.63;;;0.77;;
8480;SDS011;4277;51.354;6.740;2023-03-11T09:02:58;3.30;;;1.13;;
8480;SDS011;4277;51.354;6.740;2023-03-11T09:05:23;1.97;;;0.93;;
8480;SDS011;4277;51.354;6.740;2023-03-11T09:07:49;5.73;;;0.87;;
8480;SDS011;4277;51.354;6.740;2023-03-11T09:10:15;4.90;;;1.07;;
8480;SDS011;4277;51.354;6.740;2023-03-11T09:12:41;4.30;;;1.03;;
8480;SDS011;4277;51.354;6.740;2023-03-11T09:15:07;5.60;;;1.03;;
8480;SDS011;4277;51.354;6.740;2023-03-11T09:17:34;3.63;;;0.83;;
8480;SDS011;4277;51.354;6.740;2023-03-11T09:20:00;2.17;;;0.63;;
8480;SDS011;4277;51.354;6.740;2023-03-11T09:22:25;2.63;;;0.77;;
8480;SDS011;4277;51.354;6.740;2023-03-11T09:24:51;4.57;;;0.80;;
8480;SDS011;4277;51.354;6.740;2023-03-11T09:27:17;1.40;;;0.77;;
8480;SDS011;4277;51.354;6.740;2023-03-11T09:29:43;4.07;;;0.93;;
8480;SDS011;4277;51.354;6.740;2023-03-11T09:32:12;4.63;;;0.90;;
8480;SDS011;4277;51.354;6.740;2023-03-11T09:34:39;5.03;;;0.90;;
8480;SDS011;4277;51.354;6.740;2023-03-11T09:37:05;2.63;;;0.90;;
8480;SDS011;4277;51.354;6.740;2023-03-11T09:39:31;1.93;;;0.70;;
8480;SDS011;4277;51.354;6.740;2023-03-11T09:41:58;4.07;;;1.10;;
8480;SDS011;4277;51.354;6.740;2023-03-11T09:44:27;3.40;;;1.30;;
8480;SDS011;4277;51.354;6.740;2023-03-11T09:52:33;2.20;;;0.73;;
8480;SDS011;4277;51.354;6.740;2023-03-11T09:55:02;2.60;;;1.10;;
8480;SDS011;4277;51.354;6.740;2023-03-11T09:57:33;5.43;;;1.00;;
8480;SDS011;4277;51.354;6.740;2023-03-11T10:00:04;1.27;;;1.00;;
8480;SDS011;4277;51.354;6.740;2023-03-11T10:02:30;2.23;;;1.30;;
8480;SDS011;4277;51.354;6.740;2023-03-11T10:07:24;3.63;;;1.50;;
8480;SDS011;4277;51.354;6.740;2023-03-11T10:09:56;5.40;;;0.90;;
8480;SDS011;4277;51.354;6.740;2023-03-11T10:19:49;4.13;;;1.20;;
8480;SDS011;4277;51.354;6.740;2023-03-11T10:22:27;4.07;;;1.00;;
8480;SDS011;4277;51.354;6.740;2023-03-11T10:24:58;5.00;;;1.27;;
8480;SDS011;4277;51.354;6.740;2023-03-11T10:30:35;3.77;;;1.30;;
8480;SDS011;4277;51.354;6.740;2023-03-11T10:35:38;8.03;;;1.67;;
8480;SDS011;4277;51.354;6.740;2023-03-11T10:38:15;6.00;;;1.33;;
8480;SDS011;4277;51.354;6.740;2023-03-11T10:40:43;5.40;;;1.50;;
8480;SDS011;4277;51.354;6.740;2023-03-11T10:43:10;5.37;;;0.93;;
8480;SDS011;4277;51.354;6.740;2023-03-11T10:45:39;2.87;;;1.00;;
8480;SDS011;4277;51.354;6.740;2023-03-11T10:48:12;4.03;;;1.23;;
8480;SDS011;4277;51.354;6.740;2023-03-11T10:50:42;3.53;;;1.20;;
8480;SDS011;4277;51.354;6.740;2023-03-11T10:53:14;2.80;;;1.00;;
8480;SDS011;4277;51.354;6.740;2023-03-11T10:55:48;2.43;;;0.90;;
8480;SDS011;4277;51.354;6.740;2023-03-11T10:58:16;6.70;;;1.07;;
8480;SDS011;4277;51.354;6.740;2023-03-11T11:00:42;4.17;;;1.00;;
8480;SDS011;4277;51.354;6.740;2023-03-11T11:03:14;3.13;;;0.90;;
8480;SDS011;4277;51.354;6.740;2023-03-11T11:05:41;6.30;;;1.30;;
8480;SDS011;4277;51.354;6.740;2023-03-11T11:08:14;7.40;;;1.40;;
8480;SDS011;4277;51.354;6.740;2023-03-11T11:10:51;4.57;;;1.27;;
8480;SDS011;4277;51.354;6.740;2023-03-11T11:13:19;5.03;;;1.90;;
8480;SDS011;4277;51.354;6.740;2023-03-11T11:18:34;5.47;;;1.60;;
8480;SDS011;4277;51.354;6.740;2023-03-11T11:21:07;4.17;;;2.10;;
8480;SDS011;4277;51.354;6.740;2023-03-11T11:23:42;5.17;;;1.60;;
8480;SDS011;4277;51.354;6.740;2023-03-11T11:26:22;2.63;;;1.43;;
8480;SDS011;4277;51.354;6.740;2023-03-11T11:31:31;6.07;;;1.60;;
8480;SDS011;4277;51.354;6.740;2023-03-11T11:33:57;3.87;;;1.57;;
8480;SDS011;4277;51.354;6.740;2023-03-11T11:36:30;6.37;;;1.63;;
8480;SDS011;4277;51.354;6.740;2023-03-11T11:38:58;3.00;;;1.43;;
8480;SDS011;4277;51.354;6.740;2023-03-11T11:41:28;4.60;;;1.53;;
8480;SDS011;4277;51.354;6.740;2023-03-11T11:43:57;6.07;;;1.60;;
8480;SDS011;4277;51.354;6.740;2023-03-11T11:46:32;5.07;;;1.33;;
8480;SDS011;4277;51.354;6.740;2023-03-11T11:49:15;3.20;;;1.43;;
8480;SDS011;4277;51.354;6.740;2023-03-11T11:51:49;1.80;;;1.10;;
8480;SDS011;4277;51.354;6.740;2023-03-11T11:57:16;4.47;;;1.00;;
8480;SDS011;4277;51.354;6.740;2023-03-11T11:59:42;1.93;;;1.00;;
8480;SDS011;4277;51.354;6.740;2023-03-11T12:02:16;2.23;;;1.10;;
8480;SDS011;4277;51.354;6.740;2023-03-11T12:04:45;3.10;;;1.10;;
8480;SDS011;4277;51.354;6.740;2023-03-11T12:07:16;6.00;;;1.23;;
8480;SDS011;4277;51.354;6.740;2023-03-11T12:09:48;5.67;;;1.03;;
8480;SDS011;4277;51.354;6.740;2023-03-11T12:12:34;3.30;;;1.17;;
8480;SDS011;4277;51.354;6.740;2023-03-11T12:17:28;4.37;;;1.20;;
8480;SDS011;4277;51.354;6.740;2023-03-11T12:19:59;4.47;;;1.70;;
8480;SDS011;4277;51.354;6.740;2023-03-11T12:22:34;3.87;;;1.30;;
8480;SDS011;4277;51.354;6.740;2023-03-11T12:25:13;2.67;;;1.10;;
8480;SDS011;4277;51.354;6.740;2023-03-11T12:27:50;2.43;;;1.30;;
8480;SDS011;4277;51.354;6.740;2023-03-11T12:30:29;3.70;;;0.90;;
8480;SDS011;4277;51.354;6.740;2023-03-11T12:32:58;3.17;;;1.20;;
8480;SDS011;4277;51.354;6.740;2023-03-11T12:35:29;3.23;;;0.80;;
8480;SDS011;4277;51.354;6.740;2023-03-11T12:45:51;3.57;;;0.90;;
8480;SDS011;4277;51.354;6.740;2023-03-11T12:50:55;2.87;;;0.93;;
8480;SDS011;4277;51.354;6.740;2023-03-11T12:58:40;1.67;;;0.67;;
8480;SDS011;4277;51.354;6.740;2023-03-11T13:01:34;1.90;;;0.80;;
8480;SDS011;4277;51.354;6.740;2023-03-11T13:04:10;3.93;;;1.00;;
8480;SDS011;4277;51.354;6.740;2023-03-11T13:06:44;5.63;;;1.10;;
8480;SDS011;4277;51.354;6.740;2023-03-11T13:09:13;4.87;;;1.40;;
8480;SDS011;4277;51.354;6.740;2023-03-11T13:11:41;3.73;;;0.90;;
8480;SDS011;4277;51.354;6.740;2023-03-11T13:16:36;3.10;;;1.10;;
8480;SDS011;4277;51.354;6.740;2023-03-11T13:21:47;4.83;;;1.00;;
8480;SDS011;4277;51.354;6.740;2023-03-11T13:26:56;7.40;;;1.93;;
8480;SDS011;4277;51.354;6.740;2023-03-11T13:30:02;4.80;;;1.23;;
8480;SDS011;4277;51.354;6.740;2023-03-11T13:32:24;5.13;;;1.17;;
8480;SDS011;4277;51.354;6.740;2023-03-11T13:34:54;5.07;;;1.20;;
8480;SDS011;4277;51.354;6.740;2023-03-11T13:42:30;4.20;;;0.90;;
8480;SDS011;4277;51.354;6.740;2023-03-11T13:44:57;3.83;;;1.07;;
8480;SDS011;4277;51.354;6.740;2023-03-11T13:47:23;4.53;;;1.10;;
8480;SDS011;4277;51.354;6.740;2023-03-11T13:50:02;3.77;;;1.23;;
8480;SDS011;4277;51.354;6.740;2023-03-11T13:55:06;2.10;;;1.10;;
8480;SDS011;4277;51.354;6.740;2023-03-11T13:57:34;2.57;;;1.13;;
8480;SDS011;4277;51.354;6.740;2023-03-11T14:00:14;1.90;;;0.80;;
8480;SDS011;4277;51.354;6.740;2023-03-11T14:02:45;2.20;;;1.00;;
8480;SDS011;4277;51.354;6.740;2023-03-11T14:05:13;3.90;;;1.30;;
8480;SDS011;4277;51.354;6.740;2023-03-11T14:07:40;2.53;;;0.90;;
8480;SDS011;4277;51.354;6.740;2023-03-11T14:12:41;3.30;;;0.93;;
8480;SDS011;4277;51.354;6.740;2023-03-11T14:15:07;4.27;;;1.10;;
8480;SDS011;4277;51.354;6.740;2023-03-11T14:17:34;2.47;;;1.20;;
8480;SDS011;4277;51.354;6.740;2023-03-11T14:20:11;1.43;;;1.00;;
8480;SDS011;4277;51.354;6.740;2023-03-11T14:22:44;2.30;;;1.20;;
8480;SDS011;4277;51.354;6.740;2023-03-11T14:25:24;2.33;;;1.20;;
8480;SDS011;4277;51.354;6.740;2023-03-11T14:27:58;4.63;;;1.20;;
8480;SDS011;4277;51.354;6.740;2023-03-11T14:30:26;2.83;;;1.10;;
8480;SDS011;4277;51.354;6.740;2023-03-11T14:32:59;3.77;;;1.53;;
8480;SDS011;4277;51.354;6.740;2023-03-11T14:35:25;5.03;;;1.37;;
8480;SDS011;4277;51.354;6.740;2023-03-11T14:37:51;3.93;;;1.07;;
8480;SDS011;4277;51.354;6.740;2023-03-11T14:40:21;2.17;;;1.00;;
8480;SDS011;4277;51.354;6.740;2023-03-11T14:42:48;6.27;;;1.30;;
8480;SDS011;4277;51.354;6.740;2023-03-11T14:45:17;4.00;;;1.10;;
8480;SDS011;4277;51.354;6.740;2023-03-11T14:47:49;3.80;;;1.00;;
8480;SDS011;4277;51.354;6.740;2023-03-11T14:50:21;2.07;;;1.10;;
8480;SDS011;4277;51.354;6.740;2023-03-11T14:55:21;3.73;;;1.00;;
8480;SDS011;4277;51.354;6.740;2023-03-11T15:00:15;1.10;;;1.00;;
8480;SDS011;4277;51.354;6.740;2023-03-11T15:05:10;2.90;;;1.50;;
8480;SDS011;4277;51.354;6.740;2023-03-11T15:07:38;3.97;;;1.40;;
8480;SDS011;4277;51.354;6.740;2023-03-11T15:10:08;2.23;;;1.07;;
8480;SDS011;4277;51.354;6.740;2023-03-11T15:12:36;1.90;;;1.30;;
8480;SDS011;4277;51.354;6.740;2023-03-11T15:15:19;3.80;;;1.27;;
8480;SDS011;4277;51.354;6.740;2023-03-11T15:17:50;7.10;;;1.50;;
8480;SDS011;4277;51.354;6.740;2023-03-11T15:20:27;2.80;;;1.27;;
8480;SDS011;4277;51.354;6.740;2023-03-11T15:22:55;4.17;;;1.00;;
8480;SDS011;4277;51.354;6.740;2023-03-11T15:25:24;3.30;;;0.90;;
8480;SDS011;4277;51.354;6.740;2023-03-11T15:27:50;3.03;;;1.20;;
8480;SDS011;4277;51.354;6.740;2023-03-11T15:30:20;2.57;;;1.13;;
8480;SDS011;4277;51.354;6.740;2023-03-11T15:32:48;3.10;;;1.20;;
8480;SDS011;4277;51.354;6.740;2023-03-11T15:35:16;4.07;;;1.20;;
8480;SDS011;4277;51.354;6.740;2023-03-11T15:37:42;2.00;;;1.13;;
8480;SDS011;4277;51.354;6.740;2023-03-11T15:40:29;3.30;;;1.70;;
8480;SDS011;4277;51.354;6.740;2023-03-11T15:43:17;4.10;;;1.20;;
8480;SDS011;4277;51.354;6.740;2023-03-11T15:45:44;3.17;;;1.13;;
8480;SDS011;4277;51.354;6.740;2023-03-11T15:48:10;1.57;;;0.80;;
8480;SDS011;4277;51.354;6.740;2023-03-11T15:50:44;5.37;;;1.13;;
8480;SDS011;4277;51.354;6.740;2023-03-11T15:53:10;6.80;;;1.37;;
8480;SDS011;4277;51.354;6.740;2023-03-11T15:55:36;3.50;;;1.30;;
8480;SDS011;4277;51.354;6.740;2023-03-11T15:58:04;2.13;;;1.10;;
8480;SDS011;4277;51.354;6.740;2023-03-11T16:00:31;1.87;;;1.07;;
8480;SDS011;4277;51.354;6.740;2023-03-11T16:02:57;3.83;;;1.30;;
8480;SDS011;4277;51.354;6.740;2023-03-11T16:05:23;2.10;;;1.07;;
8480;SDS011;4277;51.354;6.740;2023-03-11T16:07:49;1.90;;;1.07;;
8480;SDS011;4277;51.354;6.740;2023-03-11T16:10:16;3.30;;;1.10;;
8480;SDS011;4277;51.354;6.740;2023-03-11T16:12:43;3.00;;;1.23;;
8480;SDS011;4277;51.354;6.740;2023-03-11T16:15:15;3.80;;;1.30;;
8480;SDS011;4277;51.354;6.740;2023-03-11T16:17:43;3.80;;;1.10;;
8480;SDS011;4277;51.354;6.740;2023-03-11T16:20:09;4.13;;;1.10;;
8480;SDS011;4277;51.354;6.740;2023-03-11T16:22:35;2.53;;;1.40;;
8480;SDS011;4277;51.354;6.740;2023-03-11T16:25:02;3.40;;;1.20;;
8480;SDS011;4277;51.354;6.740;2023-03-11T16:27:28;4.60;;;1.17;;
8480;SDS011;4277;51.354;6.740;2023-03-11T16:29:55;4.87;;;1.30;;
8480;SDS011;4277;51.354;6.740;2023-03-11T16:32:21;3.50;;;1.43;;
8480;SDS011;4277;51.354;6.740;2023-03-11T16:34:47;3.53;;;1.30;;
8480;SDS011;4277;51.354;6.740;2023-03-11T16:37:14;3.23;;;0.90;;
8480;SDS011;4277;51.354;6.740;2023-03-11T16:39:40;3.43;;;1.23;;